sensor_id;sensor_type;location;lat;lon;timestamp;pressure;altitude;pressure_sealevel;temperature;humidity
68179;BME280;54998;42.656;23.382;2022-08-01T00:01:50;94751.81;;;18.83;50.56
68179;BME280;54998;42.656;23.382;2022-08-01T00:04:15;94744.81;;;18.84;50.43
68179;BME280;54998;42.656;23.382;2022-08-01T00:06:41;94739.00;;;18.82;50.41
68179;BME280;54998;42.656;23.382;2022-08-01T00:09:06;94749.41;;;18.82;50.37
68179;BME280;54998;42.656;23.382;2022-08-01T00:11:32;94750.00;;;18.84;50.24
68179;BME280;54998;42.656;23.382;2022-08-01T00:13:57;94752.63;;;18.84;49.89
68179;BME280;54998;42.656;23.382;2022-08-01T00:16:23;94758.81;;;18.83;50.02
68179;BME280;54998;42.656;23.382;2022-08-01T00:18:50;94759.41;;;18.78;50.01
68179;BME280;54998;42.656;23.382;2022-08-01T00:21:16;94765.34;;;18.72;50.16
68179;BME280;54998;42.656;23.382;2022-08-01T00:23:41;94772.50;;;18.63;50.55
68179;BME280;54998;42.656;23.382;2022-08-01T00:26:07;94761.81;;;18.52;51.05
68179;BME280;54998;42.656;23.382;2022-08-01T00:28:33;94772.09;;;18.32;54.19
68179;BME280;54998;42.656;23.382;2022-08-01T00:30:59;94776.72;;;18.08;55.79
68179;BME280;54998;42.656;23.382;2022-08-01T01:14:23;94746.03;;;16.59;61.15
68179;BME280;54998;42.656;23.382;2022-08-01T01:16:53;94754.25;;;16.48;61.68
68179;BME280;54998;42.656;23.382;2022-08-01T01:19:23;94754.75;;;16.58;61.19
68179;BME280;54998;42.656;23.382;2022-08-01T01:22:08;94759.78;;;16.60;60.98
68179;BME280;54998;42.656;23.382;2022-08-01T01:28:08;94753.50;;;16.10;63.90
68179;BME280;54998;42.656;23.382;2022-08-01T01:30:36;94756.94;;;16.02;64.65
68179;BME280;54998;42.656;23.382;2022-08-01T01:33:06;94750.25;;;15.93;64.88
68179;BME280;54998;42.656;23.382;2022-08-01T01:35:37;94734.16;;;15.82;65.53
68179;BME280;54998;42.656;23.382;2022-08-01T01:38:20;94743.88;;;15.80;65.14
68179;BME280;54998;42.656;23.382;2022-08-01T01:40:47;94738.06;;;15.78;65.52
68179;BME280;54998;42.656;23.382;2022-08-01T01:43:14;94737.91;;;15.80;65.63
68179;BME280;54998;42.656;23.382;2022-08-01T01:45:42;94740.59;;;15.87;65.67
68179;BME280;54998;42.656;23.382;2022-08-01T01:48:10;94736.41;;;15.86;66.19
68179;BME280;54998;42.656;23.382;2022-08-01T01:50:38;94735.16;;;15.81;66.61
68179;BME280;54998;42.656;23.382;2022-08-01T01:53:06;94729.69;;;15.76;66.32
68179;BME280;54998;42.656;23.382;2022-08-01T01:55:38;94735.72;;;15.69;66.70
68179;BME280;54998;42.656;23.382;2022-08-01T01:58:05;94723.19;;;15.57;67.11
68179;BME280;54998;42.656;23.382;2022-08-01T02:00:32;94725.47;;;15.52;67.23
68179;BME280;54998;42.656;23.382;2022-08-01T02:03:01;94719.88;;;15.49;67.02
68179;BME280;54998;42.656;23.382;2022-08-01T02:05:28;94718.53;;;15.53;66.97
68179;BME280;54998;42.656;23.382;2022-08-01T02:07:54;94720.03;;;15.47;67.48
68179;BME280;54998;42.656;23.382;2022-08-01T02:10:20;94716.19;;;15.43;66.90
68179;BME280;54998;42.656;23.382;2022-08-01T02:12:47;94723.94;;;15.43;67.12
68179;BME280;54998;42.656;23.382;2022-08-01T02:15:15;94725.50;;;15.29;67.73
68179;BME280;54998;42.656;23.382;2022-08-01T02:17:44;94721.53;;;15.18;68.08
68179;BME280;54998;42.656;23.382;2022-08-01T02:20:11;94724.78;;;15.12;67.60
68179;BME280;54998;42.656;23.382;2022-08-01T02:22:41;94723.00;;;15.13;66.44
68179;BME280;54998;42.656;23.382;2022-08-01T02:25:23;94722.50;;;15.17;65.37
68179;BME280;54998;42.656;23.382;2022-08-01T02:27:56;94720.84;;;15.25;64.90
68179;BME280;54998;42.656;23.382;2022-08-01T02:30:24;94721.00;;;15.23;64.40
68179;BME280;54998;42.656;23.382;2022-08-01T02:33:02;94718.06;;;15.26;63.77
68179;BME280;54998;42.656;23.382;2022-08-01T02:35:30;94715.69;;;15.25;63.87
68179;BME280;54998;42.656;23.382;2022-08-01T02:37:57;94713.53;;;15.28;64.26
68179;BME280;54998;42.656;23.382;2022-08-01T03:12:11;94718.16;;;14.55;67.25
68179;BME280;54998;42.656;23.382;2022-08-01T03:14:40;94725.53;;;14.58;67.56
68179;BME280;54998;42.656;23.382;2022-08-01T03:17:08;94720.84;;;14.62;67.67
68179;BME280;54998;42.656;23.382;2022-08-01T03:19:35;94715.50;;;14.64;67.56
68179;BME280;54998;42.656;23.382;2022-08-01T03:22:06;94719.88;;;14.63;67.55
68179;BME280;54998;42.656;23.382;2022-08-01T03:24:34;94716.34;;;14.56;68.03
68179;BME280;54998;42.656;23.382;2022-08-01T03:27:02;94728.41;;;14.64;67.99
68179;BME280;54998;42.656;23.382;2022-08-01T03:29:27;94737.44;;;14.68;68.16
68179;BME280;54998;42.656;23.382;2022-08-01T03:31:55;94730.84;;;14.65;68.29
68179;BME280;54998;42.656;23.382;2022-08-01T03:34:22;94729.06;;;14.66;68.22
68179;BME280;54998;42.656;23.382;2022-08-01T03:37:05;94729.53;;;14.69;67.88
68179;BME280;54998;42.656;23.382;2022-08-01T03:39:40;94725.81;;;14.72;67.85
68179;BME280;54998;42.656;23.382;2022-08-01T03:42:14;94731.44;;;14.75;67.94
68179;BME280;54998;42.656;23.382;2022-08-01T03:44:41;94722.25;;;14.73;67.12
68179;BME280;54998;42.656;23.382;2022-08-01T03:47:08;94736.41;;;14.85;66.44
68179;BME280;54998;42.656;23.382;2022-08-01T03:49:39;94741.19;;;14.96;65.03
68179;BME280;54998;42.656;23.382;2022-08-01T03:52:07;94744.34;;;15.07;62.97
68179;BME280;54998;42.656;23.382;2022-08-01T03:54:42;94736.25;;;15.18;62.12
68179;BME280;54998;42.656;23.382;2022-08-01T03:57:10;94739.94;;;15.15;58.80
68179;BME280;54998;42.656;23.382;2022-08-01T03:59:37;94735.00;;;15.06;58.92
68179;BME280;54998;42.656;23.382;2022-08-01T04:02:04;94735.84;;;14.98;59.09
68179;BME280;54998;42.656;23.382;2022-08-01T04:04:30;94735.69;;;14.99;58.71
68179;BME280;54998;42.656;23.382;2022-08-01T04:06:55;94731.53;;;14.90;59.21
68179;BME280;54998;42.656;23.382;2022-08-01T04:09:21;94734.13;;;14.90;59.34
68179;BME280;54998;42.656;23.382;2022-08-01T04:11:47;94736.84;;;14.97;59.31
68179;BME280;54998;42.656;23.382;2022-08-01T04:14:13;94737.09;;;15.10;59.35
68179;BME280;54998;42.656;23.382;2022-08-01T04:16:38;94734.97;;;15.14;59.01
68179;BME280;54998;42.656;23.382;2022-08-01T04:19:04;94746.84;;;15.23;59.31
68179;BME280;54998;42.656;23.382;2022-08-01T04:21:34;94740.50;;;15.34;58.98
68179;BME280;54998;42.656;23.382;2022-08-01T04:24:03;94740.44;;;15.42;58.47
68179;BME280;54998;42.656;23.382;2022-08-01T04:26:32;94733.22;;;15.52;59.08
68179;BME280;54998;42.656;23.382;2022-08-01T04:29:02;94745.31;;;15.60;58.73
68179;BME280;54998;42.656;23.382;2022-08-01T04:31:30;94739.25;;;15.68;59.08
68179;BME280;54998;42.656;23.382;2022-08-01T04:33:57;94744.97;;;15.86;59.34
68179;BME280;54998;42.656;23.382;2022-08-01T04:36:23;94736.31;;;15.94;59.69
68179;BME280;54998;42.656;23.382;2022-08-01T04:38:54;94737.56;;;15.98;58.86
68179;BME280;54998;42.656;23.382;2022-08-01T04:41:22;94739.28;;;16.06;58.81
68179;BME280;54998;42.656;23.382;2022-08-01T05:04:29;94726.88;;;17.27;57.05
68179;BME280;54998;42.656;23.382;2022-08-01T05:06:54;94720.75;;;17.34;56.19
68179;BME280;54998;42.656;23.382;2022-08-01T05:09:20;94727.19;;;17.38;56.67
68179;BME280;54998;42.656;23.382;2022-08-01T05:11:45;94715.31;;;17.51;55.42
68179;BME280;54998;42.656;23.382;2022-08-01T05:14:11;94717.53;;;17.54;54.31
68179;BME280;54998;42.656;23.382;2022-08-01T05:16:36;94719.28;;;17.68;54.81
68179;BME280;54998;42.656;23.382;2022-08-01T05:47:28;94695.03;;;26.93;31.81
68179;BME280;54998;42.656;23.382;2022-08-01T05:49:54;94706.03;;;27.93;30.27
68179;BME280;54998;42.656;23.382;2022-08-01T05:52:19;94707.94;;;26.94;31.87
68179;BME280;54998;42.656;23.382;2022-08-01T05:54:45;94709.66;;;26.83;31.65
68179;BME280;54998;42.656;23.382;2022-08-01T05:57:10;94712.78;;;27.84;29.75
68179;BME280;54998;42.656;23.382;2022-08-01T05:59:36;94708.06;;;27.04;30.74
68179;BME280;54998;42.656;23.382;2022-08-01T06:02:01;94709.06;;;27.80;29.69
68179;BME280;54998;42.656;23.382;2022-08-01T06:04:27;94702.97;;;27.20;30.59
68179;BME280;54998;42.656;23.382;2022-08-01T06:06:52;94705.94;;;25.73;32.88
68179;BME280;54998;42.656;23.382;2022-08-01T06:09:18;94711.22;;;25.15;33.16
68179;BME280;54998;42.656;23.382;2022-08-01T06:11:43;94706.16;;;26.78;30.76
68179;BME280;54998;42.656;23.382;2022-08-01T06:14:08;94710.13;;;26.58;31.03
68179;BME280;54998;42.656;23.382;2022-08-01T06:16:34;94713.56;;;27.25;30.01
68179;BME280;54998;42.656;23.382;2022-08-01T06:18:59;94708.59;;;26.62;31.01
68179;BME280;54998;42.656;23.382;2022-08-01T06:53:04;94686.63;;;27.77;27.99
68179;BME280;54998;42.656;23.382;2022-08-01T06:55:29;94667.16;;;28.16;27.67
68179;BME280;54998;42.656;23.382;2022-08-01T06:57:55;94653.34;;;27.98;27.31
68179;BME280;54998;42.656;23.382;2022-08-01T07:00:22;94673.84;;;26.82;29.47
68179;BME280;54998;42.656;23.382;2022-08-01T07:02:52;94668.09;;;26.86;28.90
68179;BME280;54998;42.656;23.382;2022-08-01T07:05:19;94664.06;;;25.49;31.55
68179;BME280;54998;42.656;23.382;2022-08-01T07:07:45;94657.31;;;26.87;29.32
68179;BME280;54998;42.656;23.382;2022-08-01T07:10:10;94660.59;;;28.23;27.82
68179;BME280;54998;42.656;23.382;2022-08-01T07:12:36;94654.75;;;28.64;27.25
68179;BME280;54998;42.656;23.382;2022-08-01T07:15:07;94664.88;;;28.93;26.88
68179;BME280;54998;42.656;23.382;2022-08-01T07:17:36;94669.19;;;29.14;26.54
68179;BME280;54998;42.656;23.382;2022-08-01T07:20:02;94676.97;;;29.72;25.59
68179;BME280;54998;42.656;23.382;2022-08-01T07:22:28;94671.91;;;28.14;27.74
68179;BME280;54998;42.656;23.382;2022-08-01T07:24:53;94660.66;;;28.92;26.98
68179;BME280;54998;42.656;23.382;2022-08-01T07:27:18;94651.81;;;29.49;26.96
68179;BME280;54998;42.656;23.382;2022-08-01T07:29:44;94667.19;;;29.93;25.43
68179;BME280;54998;42.656;23.382;2022-08-01T07:32:09;94676.53;;;26.88;29.42
68179;BME280;54998;42.656;23.382;2022-08-01T07:34:35;94673.88;;;27.91;28.44
68179;BME280;54998;42.656;23.382;2022-08-01T07:37:00;94674.31;;;28.25;27.97
68179;BME280;54998;42.656;23.382;2022-08-01T07:39:26;94674.06;;;27.03;29.58
68179;BME280;54998;42.656;23.382;2022-08-01T07:41:51;94657.25;;;27.31;29.71
68179;BME280;54998;42.656;23.382;2022-08-01T07:44:17;94681.13;;;28.11;28.48
68179;BME280;54998;42.656;23.382;2022-08-01T07:46:42;94657.75;;;27.88;28.44
68179;BME280;54998;42.656;23.382;2022-08-01T07:49:08;94676.75;;;27.08;29.00
68179;BME280;54998;42.656;23.382;2022-08-01T07:51:33;94674.66;;;26.83;29.48
68179;BME280;54998;42.656;23.382;2022-08-01T07:53:58;94670.13;;;28.24;27.48
68179;BME280;54998;42.656;23.382;2022-08-01T07:56:24;94674.19;;;27.40;27.89
68179;BME280;54998;42.656;23.382;2022-08-01T07:58:50;94674.53;;;27.49;28.51
68179;BME280;54998;42.656;23.382;2022-08-01T08:01:16;94661.50;;;26.61;29.85
68179;BME280;54998;42.656;23.382;2022-08-01T08:03:41;94684.66;;;28.80;27.74
68179;BME280;54998;42.656;23.382;2022-08-01T08:06:07;94669.13;;;30.68;24.62
68179;BME280;54998;42.656;23.382;2022-08-01T08:08:32;94670.56;;;31.10;24.23
68179;BME280;54998;42.656;23.382;2022-08-01T08:11:00;94681.44;;;29.41;26.72
68179;BME280;54998;42.656;23.382;2022-08-01T08:13:25;94666.25;;;28.42;27.34
68179;BME280;54998;42.656;23.382;2022-08-01T08:15:50;94689.91;;;30.04;25.84
68179;BME280;54998;42.656;23.382;2022-08-01T08:18:16;94685.22;;;28.87;26.98
68179;BME280;54998;42.656;23.382;2022-08-01T08:20:41;94681.56;;;28.98;27.14
68179;BME280;54998;42.656;23.382;2022-08-01T08:23:07;94635.94;;;29.13;26.87
68179;BME280;54998;42.656;23.382;2022-08-01T08:25:52;94662.69;;;31.00;24.45
68179;BME280;54998;42.656;23.382;2022-08-01T08:28:17;94674.28;;;29.57;25.93
68179;BME280;54998;42.656;23.382;2022-08-01T08:30:43;94661.22;;;28.94;27.30
68179;BME280;54998;42.656;23.382;2022-08-01T08:33:08;94669.63;;;28.85;27.34
68179;BME280;54998;42.656;23.382;2022-08-01T08:35:34;94664.50;;;29.57;26.29
68179;BME280;54998;42.656;23.382;2022-08-01T08:37:59;94671.28;;;28.01;28.63
68179;BME280;54998;42.656;23.382;2022-08-01T08:40:29;94681.59;;;28.45;27.86
68179;BME280;54998;42.656;23.382;2022-08-01T08:42:55;94678.09;;;30.77;24.60
68179;BME280;54998;42.656;23.382;2022-08-01T08:45:22;94668.72;;;28.12;28.11
68179;BME280;54998;42.656;23.382;2022-08-01T08:47:48;94640.91;;;27.61;27.82
68179;BME280;54998;42.656;23.382;2022-08-01T08:50:15;94662.13;;;27.44;28.42
68179;BME280;54998;42.656;23.382;2022-08-01T08:52:41;94675.94;;;27.57;28.66
68179;BME280;54998;42.656;23.382;2022-08-01T08:55:09;94674.16;;;29.00;26.52
68179;BME280;54998;42.656;23.382;2022-08-01T08:57:39;94664.91;;;27.97;27.27
68179;BME280;54998;42.656;23.382;2022-08-01T09:13:06;94633.97;;;31.12;23.30
68179;BME280;54998;42.656;23.382;2022-08-01T09:15:43;94646.13;;;31.63;22.89
68179;BME280;54998;42.656;23.382;2022-08-01T09:18:33;94634.63;;;30.94;23.49
68179;BME280;54998;42.656;23.382;2022-08-01T09:21:19;94664.00;;;29.91;24.07
68179;BME280;54998;42.656;23.382;2022-08-01T09:23:53;94655.00;;;29.61;24.65
68179;BME280;54998;42.656;23.382;2022-08-01T09:26:22;94648.13;;;29.81;24.76
68179;BME280;54998;42.656;23.382;2022-08-01T09:28:53;94653.91;;;30.24;24.45
68179;BME280;54998;42.656;23.382;2022-08-01T09:31:18;94653.94;;;30.08;24.49
68179;BME280;54998;42.656;23.382;2022-08-01T09:33:59;94636.19;;;30.95;22.72
68179;BME280;54998;42.656;23.382;2022-08-01T09:39:14;94636.13;;;28.91;24.80
68179;BME280;54998;42.656;23.382;2022-08-01T09:41:40;94644.38;;;29.25;24.18
68179;BME280;54998;42.656;23.382;2022-08-01T09:44:05;94633.69;;;28.79;25.24
68179;BME280;54998;42.656;23.382;2022-08-01T09:46:31;94646.53;;;29.54;24.73
68179;BME280;54998;42.656;23.382;2022-08-01T09:49:04;94635.94;;;29.64;24.57
68179;BME280;54998;42.656;23.382;2022-08-01T09:51:33;94641.50;;;29.32;25.46
68179;BME280;54998;42.656;23.382;2022-08-01T09:53:59;94637.50;;;30.17;23.70
68179;BME280;54998;42.656;23.382;2022-08-01T09:56:27;94625.41;;;29.69;24.26
68179;BME280;54998;42.656;23.382;2022-08-01T09:59:00;94631.19;;;29.31;25.31
68179;BME280;54998;42.656;23.382;2022-08-01T10:01:26;94632.19;;;31.42;23.47
68179;BME280;54998;42.656;23.382;2022-08-01T10:06:35;94631.22;;;30.78;24.28
68179;BME280;54998;42.656;23.382;2022-08-01T10:09:02;94632.63;;;30.60;24.42
68179;BME280;54998;42.656;23.382;2022-08-01T10:11:28;94647.97;;;28.83;26.88
68179;BME280;54998;42.656;23.382;2022-08-01T10:16:34;94638.22;;;31.52;22.93
68179;BME280;54998;42.656;23.382;2022-08-01T10:19:00;94626.72;;;33.50;20.98
68179;BME280;54998;42.656;23.382;2022-08-01T10:21:27;94619.34;;;30.70;23.76
68179;BME280;54998;42.656;23.382;2022-08-01T10:23:54;94608.06;;;30.44;24.10
68179;BME280;54998;42.656;23.382;2022-08-01T10:26:21;94623.19;;;30.98;23.02
68179;BME280;54998;42.656;23.382;2022-08-01T10:28:50;94621.06;;;31.40;22.90
68179;BME280;54998;42.656;23.382;2022-08-01T10:31:16;94603.38;;;31.30;22.52
68179;BME280;54998;42.656;23.382;2022-08-01T10:33:43;94629.91;;;29.84;24.42
68179;BME280;54998;42.656;23.382;2022-08-01T10:36:09;94632.19;;;30.27;25.01
68179;BME280;54998;42.656;23.382;2022-08-01T10:38:35;94622.00;;;32.18;22.80
68179;BME280;54998;42.656;23.382;2022-08-01T10:41:02;94620.03;;;32.04;22.51
68179;BME280;54998;42.656;23.382;2022-08-01T10:43:28;94618.47;;;30.04;25.25
68179;BME280;54998;42.656;23.382;2022-08-01T10:45:53;94621.84;;;30.36;25.20
68179;BME280;54998;42.656;23.382;2022-08-01T10:48:24;94615.28;;;30.28;25.52
68179;BME280;54998;42.656;23.382;2022-08-01T10:50:53;94605.16;;;30.45;24.95
68179;BME280;54998;42.656;23.382;2022-08-01T10:53:24;94586.69;;;30.20;25.12
68179;BME280;54998;42.656;23.382;2022-08-01T10:56:02;94592.56;;;31.61;23.19
68179;BME280;54998;42.656;23.382;2022-08-01T10:58:30;94608.69;;;32.47;22.33
68179;BME280;54998;42.656;23.382;2022-08-01T11:03:41;94607.28;;;30.38;24.34
68179;BME280;54998;42.656;23.382;2022-08-01T11:06:16;94597.06;;;30.06;24.68
68179;BME280;54998;42.656;23.382;2022-08-01T11:08:43;94572.53;;;29.69;25.49
68179;BME280;54998;42.656;23.382;2022-08-01T11:11:16;94579.72;;;30.49;24.65
68179;BME280;54998;42.656;23.382;2022-08-01T11:45:19;94595.03;;;30.63;24.99
68179;BME280;54998;42.656;23.382;2022-08-01T11:47:48;94588.13;;;30.62;24.94
68179;BME280;54998;42.656;23.382;2022-08-01T11:53:04;94583.50;;;30.18;25.65
68179;BME280;54998;42.656;23.382;2022-08-01T11:55:30;94577.78;;;30.65;24.65
68179;BME280;54998;42.656;23.382;2022-08-01T11:58:04;94588.00;;;30.22;25.89
68179;BME280;54998;42.656;23.382;2022-08-01T12:00:31;94566.94;;;29.66;26.15
68179;BME280;54998;42.656;23.382;2022-08-01T12:03:03;94588.31;;;29.08;26.85
68179;BME280;54998;42.656;23.382;2022-08-01T12:05:30;94583.88;;;28.30;28.02
68179;BME280;54998;42.656;23.382;2022-08-01T12:07:57;94585.38;;;27.73;29.62
68179;BME280;54998;42.656;23.382;2022-08-01T12:10:31;94573.75;;;28.06;28.63
68179;BME280;54998;42.656;23.382;2022-08-01T12:13:03;94582.22;;;28.87;28.17
68179;BME280;54998;42.656;23.382;2022-08-01T12:15:34;94586.75;;;29.68;26.48
68179;BME280;54998;42.656;23.382;2022-08-01T12:18:02;94565.91;;;29.36;26.97
68179;BME280;54998;42.656;23.382;2022-08-01T12:20:35;94552.38;;;27.65;29.41
68179;BME280;54998;42.656;23.382;2022-08-01T12:23:05;94575.88;;;27.72;29.03
68179;BME280;54998;42.656;23.382;2022-08-01T12:25:31;94573.41;;;27.55;29.67
68179;BME280;54998;42.656;23.382;2022-08-01T12:28:08;94572.25;;;26.59;30.71
68179;BME280;54998;42.656;23.382;2022-08-01T12:30:35;94582.00;;;26.59;31.35
68179;BME280;54998;42.656;23.382;2022-08-01T12:33:02;94578.47;;;26.75;31.06
68179;BME280;54998;42.656;23.382;2022-08-01T12:35:29;94586.81;;;26.94;30.91
68179;BME280;54998;42.656;23.382;2022-08-01T12:37:58;94579.19;;;26.66;31.43
68179;BME280;54998;42.656;23.382;2022-08-01T12:40:34;94580.13;;;26.81;31.03
68179;BME280;54998;42.656;23.382;2022-08-01T12:43:06;94558.47;;;26.74;30.49
68179;BME280;54998;42.656;23.382;2022-08-01T12:45:42;94573.88;;;26.88;31.00
68179;BME280;54998;42.656;23.382;2022-08-01T12:48:14;94569.47;;;26.71;30.94
68179;BME280;54998;42.656;23.382;2022-08-01T12:50:42;94561.72;;;26.15;31.47
68179;BME280;54998;42.656;23.382;2022-08-01T12:53:09;94580.53;;;26.24;30.99
68179;BME280;54998;42.656;23.382;2022-08-01T12:56:01;94547.16;;;26.52;31.04
68179;BME280;54998;42.656;23.382;2022-08-01T12:58:32;94565.19;;;26.43;31.13
68179;BME280;54998;42.656;23.382;2022-08-01T13:01:08;94568.53;;;26.33;31.36
68179;BME280;54998;42.656;23.382;2022-08-01T13:04:02;94566.50;;;26.40;30.58
68179;BME280;54998;42.656;23.382;2022-08-01T13:06:32;94557.81;;;26.62;30.59
68179;BME280;54998;42.656;23.382;2022-08-01T13:09:10;94549.94;;;26.18;31.46
68179;BME280;54998;42.656;23.382;2022-08-01T13:11:36;94563.88;;;26.40;31.71
68179;BME280;54998;42.656;23.382;2022-08-01T13:14:02;94555.34;;;26.55;31.42
68179;BME280;54998;42.656;23.382;2022-08-01T13:16:28;94551.38;;;26.53;31.19
68179;BME280;54998;42.656;23.382;2022-08-01T13:18:55;94556.66;;;26.53;31.63
68179;BME280;54998;42.656;23.382;2022-08-01T13:21:26;94556.91;;;26.07;32.15
68179;BME280;54998;42.656;23.382;2022-08-01T13:24:12;94546.56;;;26.00;32.25
68179;BME280;54998;42.656;23.382;2022-08-01T13:29:12;94558.19;;;26.05;33.02
68179;BME280;54998;42.656;23.382;2022-08-01T13:31:39;94539.16;;;25.97;32.69
68179;BME280;54998;42.656;23.382;2022-08-01T13:34:05;94546.75;;;26.16;32.52
68179;BME280;54998;42.656;23.382;2022-08-01T13:36:31;94531.06;;;26.26;32.03
68179;BME280;54998;42.656;23.382;2022-08-01T13:38:58;94525.66;;;26.33;31.81
68179;BME280;54998;42.656;23.382;2022-08-01T13:41:42;94539.50;;;26.28;31.84
68179;BME280;54998;42.656;23.382;2022-08-01T13:44:08;94540.81;;;26.03;32.86
68179;BME280;54998;42.656;23.382;2022-08-01T13:46:37;94529.75;;;26.01;32.63
68179;BME280;54998;42.656;23.382;2022-08-01T13:49:03;94532.69;;;26.27;32.10
68179;BME280;54998;42.656;23.382;2022-08-01T13:51:30;94536.47;;;26.36;32.28
68179;BME280;54998;42.656;23.382;2022-08-01T13:53:55;94527.97;;;26.29;32.54
68179;BME280;54998;42.656;23.382;2022-08-01T13:56:21;94525.34;;;26.29;32.59
68179;BME280;54998;42.656;23.382;2022-08-01T13:58:46;94524.34;;;26.35;32.08
68179;BME280;54998;42.656;23.382;2022-08-01T14:14:12;94535.50;;;25.98;33.07
68179;BME280;54998;42.656;23.382;2022-08-01T14:16:40;94528.53;;;26.09;33.55
68179;BME280;54998;42.656;23.382;2022-08-01T14:19:09;94533.84;;;26.14;32.96
68179;BME280;54998;42.656;23.382;2022-08-01T14:21:35;94525.91;;;26.09;33.00
68179;BME280;54998;42.656;23.382;2022-08-01T14:24:00;94536.34;;;26.04;33.14
68179;BME280;54998;42.656;23.382;2022-08-01T14:26:29;94533.44;;;26.00;33.02
68179;BME280;54998;42.656;23.382;2022-08-01T14:28:57;94541.31;;;25.83;33.78
68179;BME280;54998;42.656;23.382;2022-08-01T14:31:23;94524.13;;;25.76;33.75
68179;BME280;54998;42.656;23.382;2022-08-01T14:33:48;94538.88;;;25.77;33.84
68179;BME280;54998;42.656;23.382;2022-08-01T14:36:14;94539.53;;;25.50;33.65
68179;BME280;54998;42.656;23.382;2022-08-01T14:38:39;94537.63;;;25.62;34.05
68179;BME280;54998;42.656;23.382;2022-08-01T14:41:05;94541.72;;;25.75;33.61
68179;BME280;54998;42.656;23.382;2022-08-01T14:43:30;94546.50;;;25.78;33.24
68179;BME280;54998;42.656;23.382;2022-08-01T14:45:57;94544.34;;;25.92;33.15
68179;BME280;54998;42.656;23.382;2022-08-01T14:48:23;94536.88;;;25.67;33.67
68179;BME280;54998;42.656;23.382;2022-08-01T14:50:48;94540.75;;;25.26;33.93
68179;BME280;54998;42.656;23.382;2022-08-01T14:53:17;94543.06;;;25.22;34.40
68179;BME280;54998;42.656;23.382;2022-08-01T14:55:45;94532.44;;;25.17;34.58
68179;BME280;54998;42.656;23.382;2022-08-01T14:58:11;94543.19;;;25.15;34.47
68179;BME280;54998;42.656;23.382;2022-08-01T15:00:36;94539.94;;;25.08;34.32
68179;BME280;54998;42.656;23.382;2022-08-01T15:03:02;94551.50;;;25.24;34.23
68179;BME280;54998;42.656;23.382;2022-08-01T15:05:28;94564.16;;;25.27;34.07
68179;BME280;54998;42.656;23.382;2022-08-01T15:07:54;94551.63;;;25.17;34.27
68179;BME280;54998;42.656;23.382;2022-08-01T15:10:19;94547.19;;;25.35;34.14
68179;BME280;54998;42.656;23.382;2022-08-01T15:12:46;94551.31;;;25.48;33.88
68179;BME280;54998;42.656;23.382;2022-08-01T15:15:12;94559.94;;;25.43;34.12
68179;BME280;54998;42.656;23.382;2022-08-01T15:17:37;94548.41;;;25.44;34.58
68179;BME280;54998;42.656;23.382;2022-08-01T15:20:05;94546.19;;;25.75;33.97
68179;BME280;54998;42.656;23.382;2022-08-01T15:22:32;94561.97;;;25.75;33.50
68179;BME280;54998;42.656;23.382;2022-08-01T15:24:59;94555.59;;;25.71;34.10
68179;BME280;54998;42.656;23.382;2022-08-01T15:27:26;94553.59;;;25.78;34.22
68179;BME280;54998;42.656;23.382;2022-08-01T15:32:21;94550.69;;;25.57;33.72
68179;BME280;54998;42.656;23.382;2022-08-01T15:34:47;94540.72;;;25.76;34.22
68179;BME280;54998;42.656;23.382;2022-08-01T15:37:13;94554.69;;;25.99;33.15
68179;BME280;54998;42.656;23.382;2022-08-01T15:39:40;94549.56;;;26.09;33.12
68179;BME280;54998;42.656;23.382;2022-08-01T15:42:12;94557.75;;;26.13;33.01
68179;BME280;54998;42.656;23.382;2022-08-01T15:44:38;94543.38;;;26.20;32.84
68179;BME280;54998;42.656;23.382;2022-08-01T15:47:04;94554.22;;;26.24;32.48
68179;BME280;54998;42.656;23.382;2022-08-01T15:49:30;94550.84;;;26.07;32.98
68179;BME280;54998;42.656;23.382;2022-08-01T15:51:55;94558.59;;;25.96;33.12
68179;BME280;54998;42.656;23.382;2022-08-01T15:54:21;94548.88;;;25.80;33.33
68179;BME280;54998;42.656;23.382;2022-08-01T15:56:46;94545.25;;;25.64;33.61
68179;BME280;54998;42.656;23.382;2022-08-01T15:59:12;94545.44;;;25.40;33.36
68179;BME280;54998;42.656;23.382;2022-08-01T16:01:38;94544.34;;;25.36;33.43
68179;BME280;54998;42.656;23.382;2022-08-01T16:04:04;94553.38;;;25.46;33.55
68179;BME280;54998;42.656;23.382;2022-08-01T16:06:30;94550.94;;;25.39;33.50
68179;BME280;54998;42.656;23.382;2022-08-01T16:08:55;94554.84;;;25.36;33.30
68179;BME280;54998;42.656;23.382;2022-08-01T16:11:21;94562.09;;;25.46;33.67
68179;BME280;54998;42.656;23.382;2022-08-01T16:13:48;94564.22;;;25.49;33.62
68179;BME280;54998;42.656;23.382;2022-08-01T16:16:14;94547.34;;;25.28;33.46
68179;BME280;54998;42.656;23.382;2022-08-01T16:18:43;94560.09;;;25.36;33.57
68179;BME280;54998;42.656;23.382;2022-08-01T16:21:08;94560.41;;;25.40;33.35
68179;BME280;54998;42.656;23.382;2022-08-01T16:23:37;94563.94;;;25.29;33.61
68179;BME280;54998;42.656;23.382;2022-08-01T16:26:03;94555.66;;;25.20;32.92
68179;BME280;54998;42.656;23.382;2022-08-01T16:28:28;94566.25;;;25.13;33.24
68179;BME280;54998;42.656;23.382;2022-08-01T16:30:54;94563.22;;;25.05;33.08
68179;BME280;54998;42.656;23.382;2022-08-01T16:33:19;94566.41;;;25.07;33.50
68179;BME280;54998;42.656;23.382;2022-08-01T16:35:45;94568.09;;;25.13;34.31
68179;BME280;54998;42.656;23.382;2022-08-01T16:38:11;94576.66;;;25.20;33.80
68179;BME280;54998;42.656;23.382;2022-08-01T16:40:36;94567.84;;;24.97;35.22
68179;BME280;54998;42.656;23.382;2022-08-01T16:43:03;94566.56;;;24.83;34.86
68179;BME280;54998;42.656;23.382;2022-08-01T16:45:28;94571.34;;;25.03;34.74
68179;BME280;54998;42.656;23.382;2022-08-01T16:47:54;94561.69;;;25.20;35.37